sensor_id;sensor_type;location;lat;lon;timestamp;pressure;altitude;pressure_sealevel;temperature;humidity
62710;BME280;48770;51.624;5.886;2023-04-22T00:01:20;100702.78;;;21.92;36.38
62710;BME280;48770;51.624;5.886;2023-04-22T00:03:45;100711.16;;;21.92;36.54
62710;BME280;48770;51.624;5.886;2023-04-22T00:06:11;100699.56;;;21.90;36.51
62710;BME280;48770;51.624;5.886;2023-04-22T00:08:37;100693.19;;;21.89;36.58
62710;BME280;48770;51.624;5.886;2023-04-22T00:11:02;100697.97;;;21.89;36.55
62710;BME280;48770;51.624;5.886;2023-04-22T00:13:27;100693.56;;;21.88;36.69
62710;BME280;48770;51.624;5.886;2023-04-22T00:15:53;100694.72;;;21.87;36.63
62710;BME280;48770;51.624;5.886;2023-04-22T00:18:18;100683.59;;;21.87;36.70
62710;BME280;48770;51.624;5.886;2023-04-22T00:20:44;100688.34;;;21.86;36.88
62710;BME280;48770;51.624;5.886;2023-04-22T00:23:11;100682.78;;;21.86;36.62
62710;BME280;48770;51.624;5.886;2023-04-22T00:25:38;100689.16;;;21.87;36.53
62710;BME280;48770;51.624;5.886;2023-04-22T00:28:03;100681.16;;;21.85;36.42
62710;BME280;48770;51.624;5.886;2023-04-22T00:30:29;100687.53;;;21.85;36.40
62710;BME280;48770;51.624;5.886;2023-04-22T00:32:54;100690.66;;;21.84;36.89
62710;BME280;48770;51.624;5.886;2023-04-22T00:35:20;100683.50;;;21.83;36.70
62710;BME280;48770;51.624;5.886;2023-04-22T00:37:45;100688.25;;;21.82;36.68
62710;BME280;48770;51.624;5.886;2023-04-22T00:40:11;100681.88;;;21.82;36.42
62710;BME280;48770;51.624;5.886;2023-04-22T00:42:36;100676.31;;;21.82;36.43
62710;BME280;48770;51.624;5.886;2023-04-22T00:45:02;100673.88;;;21.80;36.44
62710;BME280;48770;51.624;5.886;2023-04-22T00:47:28;100669.13;;;21.81;36.34
62710;BME280;48770;51.624;5.886;2023-04-22T00:49:54;100675.88;;;21.80;36.50
62710;BME280;48770;51.624;5.886;2023-04-22T00:52:19;100677.03;;;21.79;36.47
62710;BME280;48770;51.624;5.886;2023-04-22T00:54:45;100677.03;;;21.79;36.71
62710;BME280;48770;51.624;5.886;2023-04-22T00:57:11;100676.22;;;21.78;36.31
62710;BME280;48770;51.624;5.886;2023-04-22T00:59:37;100679.00;;;21.78;36.84
62710;BME280;48770;51.624;5.886;2023-04-22T01:02:02;100675.44;;;21.78;36.61
62710;BME280;48770;51.624;5.886;2023-04-22T01:04:28;100673.81;;;21.77;36.37
62710;BME280;48770;51.624;5.886;2023-04-22T01:06:53;100671.41;;;21.75;36.36
62710;BME280;48770;51.624;5.886;2023-04-22T01:09:19;100672.19;;;21.76;36.42
62710;BME280;48770;51.624;5.886;2023-04-22T01:11:45;100667.81;;;21.75;36.51
62710;BME280;48770;51.624;5.886;2023-04-22T01:14:11;100667.81;;;21.75;36.48
62710;BME280;48770;51.624;5.886;2023-04-22T01:16:37;100669.78;;;21.74;36.68
62710;BME280;48770;51.624;5.886;2023-04-22T01:19:04;100667.00;;;21.74;36.23
62710;BME280;48770;51.624;5.886;2023-04-22T01:21:30;100666.19;;;21.74;36.40
62710;BME280;48770;51.624;5.886;2023-04-22T01:23:58;100665.38;;;21.73;36.27
62710;BME280;48770;51.624;5.886;2023-04-22T01:26:24;100655.44;;;21.72;36.47
62710;BME280;48770;51.624;5.886;2023-04-22T01:28:49;100655.44;;;21.72;36.50
62710;BME280;48770;51.624;5.886;2023-04-22T01:31:15;100660.19;;;21.72;36.35
62710;BME280;48770;51.624;5.886;2023-04-22T01:33:40;100658.56;;;21.71;36.49
62710;BME280;48770;51.624;5.886;2023-04-22T01:36:06;100652.19;;;21.70;36.26
62710;BME280;48770;51.624;5.886;2023-04-22T01:38:33;100653.38;;;21.69;36.36
62710;BME280;48770;51.624;5.886;2023-04-22T01:41:02;100656.16;;;21.69;36.09
62710;BME280;48770;51.624;5.886;2023-04-22T01:43:28;100653.38;;;21.69;36.36
62710;BME280;48770;51.624;5.886;2023-04-22T01:45:55;100656.53;;;21.68;36.45
62710;BME280;48770;51.624;5.886;2023-04-22T01:48:20;100650.97;;;21.68;36.27
62710;BME280;48770;51.624;5.886;2023-04-22T01:50:46;100649.34;;;21.67;36.52
62710;BME280;48770;51.624;5.886;2023-04-22T01:53:11;100651.31;;;21.66;36.26
62710;BME280;48770;51.624;5.886;2023-04-22T01:55:37;100656.09;;;21.66;36.38
62710;BME280;48770;51.624;5.886;2023-04-22T01:58:03;100651.31;;;21.66;36.23
62710;BME280;48770;51.624;5.886;2023-04-22T02:00:29;100650.50;;;21.66;36.58
62710;BME280;48770;51.624;5.886;2023-04-22T02:02:54;100650.88;;;21.64;36.19
62710;BME280;48770;51.624;5.886;2023-04-22T02:05:20;100648.09;;;21.64;36.19
62710;BME280;48770;51.624;5.886;2023-04-22T02:07:45;100642.53;;;21.64;36.34
62710;BME280;48770;51.624;5.886;2023-04-22T02:10:11;100640.91;;;21.63;36.07
62710;BME280;48770;51.624;5.886;2023-04-22T02:12:36;100649.25;;;21.63;36.25
62710;BME280;48770;51.624;5.886;2023-04-22T02:15:02;100646.03;;;21.61;36.04
62710;BME280;48770;51.624;5.886;2023-04-22T02:17:28;100654.84;;;21.63;36.26
62710;BME280;48770;51.624;5.886;2023-04-22T02:19:54;100646.03;;;21.61;36.55
62710;BME280;48770;51.624;5.886;2023-04-22T02:22:20;100650.44;;;21.62;36.46
62710;BME280;48770;51.624;5.886;2023-04-22T02:24:46;100642.44;;;21.61;36.29
62710;BME280;48770;51.624;5.886;2023-04-22T02:27:11;100641.66;;;21.60;36.28
62710;BME280;48770;51.624;5.886;2023-04-22T02:29:36;100640.81;;;21.60;36.10
62710;BME280;48770;51.624;5.886;2023-04-22T02:32:02;100636.41;;;21.59;36.23
62710;BME280;48770;51.624;5.886;2023-04-22T02:34:27;100643.97;;;21.58;36.29
62710;BME280;48770;51.624;5.886;2023-04-22T02:36:52;100639.19;;;21.59;36.22
62710;BME280;48770;51.624;5.886;2023-04-22T02:39:17;100634.00;;;21.57;36.15
62710;BME280;48770;51.624;5.886;2023-04-22T02:41:43;100629.59;;;21.56;36.39
62710;BME280;48770;51.624;5.886;2023-04-22T02:44:08;100634.00;;;21.57;36.50
62710;BME280;48770;51.624;5.886;2023-04-22T02:46:33;100632.38;;;21.56;36.38
62710;BME280;48770;51.624;5.886;2023-04-22T02:48:59;100628.00;;;21.55;36.57
62710;BME280;48770;51.624;5.886;2023-04-22T02:51:24;100619.66;;;21.55;36.43
62710;BME280;48770;51.624;5.886;2023-04-22T02:53:51;100622.44;;;21.55;36.31
62710;BME280;48770;51.624;5.886;2023-04-22T02:56:16;100621.63;;;21.54;36.24
62710;BME280;48770;51.624;5.886;2023-04-22T02:58:42;100618.84;;;21.54;36.32
62710;BME280;48770;51.624;5.886;2023-04-22T03:01:07;100619.19;;;21.53;36.26
62710;BME280;48770;51.624;5.886;2023-04-22T03:03:32;100621.97;;;21.53;36.30
62710;BME280;48770;51.624;5.886;2023-04-22T03:05:58;100623.16;;;21.52;36.10
62710;BME280;48770;51.624;5.886;2023-04-22T03:08:24;100617.59;;;21.52;36.26
62710;BME280;48770;51.624;5.886;2023-04-22T03:10:49;100606.47;;;21.52;36.24
62710;BME280;48770;51.624;5.886;2023-04-22T03:13:15;100617.59;;;21.52;36.32
62710;BME280;48770;51.624;5.886;2023-04-22T03:15:40;100610.41;;;21.51;36.39
62710;BME280;48770;51.624;5.886;2023-04-22T03:18:06;100602.06;;;21.51;36.06
62710;BME280;48770;51.624;5.886;2023-04-22T03:20:31;100599.28;;;21.51;36.15
62710;BME280;48770;51.624;5.886;2023-04-22T03:22:57;100608.81;;;21.50;36.33
62710;BME280;48770;51.624;5.886;2023-04-22T03:25:22;100609.97;;;21.49;36.22
62710;BME280;48770;51.624;5.886;2023-04-22T03:27:47;100596.88;;;21.49;36.25
62710;BME280;48770;51.624;5.886;2023-04-22T03:30:13;100601.19;;;21.47;35.94
62710;BME280;48770;51.624;5.886;2023-04-22T03:32:38;100593.66;;;21.47;36.10
62710;BME280;48770;51.624;5.886;2023-04-22T03:35:04;100592.84;;;21.47;35.90
62710;BME280;48770;51.624;5.886;2023-04-22T03:37:30;100592.03;;;21.46;36.10
62710;BME280;48770;51.624;5.886;2023-04-22T03:39:55;100586.84;;;21.45;35.97
62710;BME280;48770;51.624;5.886;2023-04-22T03:42:20;100581.28;;;21.45;36.33
62710;BME280;48770;51.624;5.886;2023-04-22T03:44:46;100572.13;;;21.44;36.22
62710;BME280;48770;51.624;5.886;2023-04-22T03:47:11;100573.72;;;21.45;36.67
62710;BME280;48770;51.624;5.886;2023-04-22T03:49:36;100569.69;;;21.43;35.89
62710;BME280;48770;51.624;5.886;2023-04-22T03:52:02;100571.31;;;21.44;36.29
62710;BME280;48770;51.624;5.886;2023-04-22T03:54:28;100570.50;;;21.43;36.29
62710;BME280;48770;51.624;5.886;2023-04-22T03:56:53;100570.50;;;21.43;36.40
62710;BME280;48770;51.624;5.886;2023-04-22T03:59:19;100568.09;;;21.42;36.19
62710;BME280;48770;51.624;5.886;2023-04-22T04:01:50;100558.59;;;21.43;35.98
62710;BME280;48770;51.624;5.886;2023-04-22T04:04:15;100568.09;;;21.42;36.24
62710;BME280;48770;51.624;5.886;2023-04-22T04:06:41;100562.53;;;21.42;36.15
62710;BME280;48770;51.624;5.886;2023-04-22T04:09:06;100563.69;;;21.41;36.15
62710;BME280;48770;51.624;5.886;2023-04-22T04:11:31;100558.50;;;21.39;36.33
62710;BME280;48770;51.624;5.886;2023-04-22T04:13:56;100561.28;;;21.39;35.92
62710;BME280;48770;51.624;5.886;2023-04-22T04:16:22;100559.69;;;21.38;35.99
62710;BME280;48770;51.624;5.886;2023-04-22T04:18:51;100564.88;;;21.40;36.05
62710;BME280;48770;51.624;5.886;2023-04-22T04:21:17;100554.09;;;21.38;36.20
62710;BME280;48770;51.624;5.886;2023-04-22T04:23:42;100551.31;;;21.38;36.11
62710;BME280;48770;51.624;5.886;2023-04-22T04:26:07;100553.31;;;21.38;35.92
62710;BME280;48770;51.624;5.886;2023-04-22T04:28:33;100547.75;;;21.38;36.26
62710;BME280;48770;51.624;5.886;2023-04-22T04:30:59;100550.53;;;21.38;36.08
62710;BME280;48770;51.624;5.886;2023-04-22T04:33:27;100551.69;;;21.37;36.08
62710;BME280;48770;51.624;5.886;2023-04-22T04:35:52;100542.53;;;21.36;36.20
62710;BME280;48770;51.624;5.886;2023-04-22T04:38:18;100543.72;;;21.35;35.96
62710;BME280;48770;51.624;5.886;2023-04-22T04:40:43;100550.09;;;21.36;36.18
62710;BME280;48770;51.624;5.886;2023-04-22T04:43:11;100542.53;;;21.36;36.17
62710;BME280;48770;51.624;5.886;2023-04-22T04:45:38;100544.88;;;21.34;36.13
62710;BME280;48770;51.624;5.886;2023-04-22T04:48:04;100539.31;;;21.34;36.01
62710;BME280;48770;51.624;5.886;2023-04-22T04:50:33;100543.25;;;21.33;36.14
62710;BME280;48770;51.624;5.886;2023-04-22T04:52:58;100548.81;;;21.33;36.19
62710;BME280;48770;51.624;5.886;2023-04-22T04:55:24;100545.22;;;21.33;36.21
62710;BME280;48770;51.624;5.886;2023-04-22T04:57:49;100537.25;;;21.31;35.95
62710;BME280;48770;51.624;5.886;2023-04-22T05:00:15;100537.25;;;21.31;35.90
62710;BME280;48770;51.624;5.886;2023-04-22T05:02:41;100547.19;;;21.32;35.95
62710;BME280;48770;51.624;5.886;2023-04-22T05:05:07;100543.59;;;21.32;35.91
62710;BME280;48770;51.624;5.886;2023-04-22T05:07:32;100549.16;;;21.32;36.01
62710;BME280;48770;51.624;5.886;2023-04-22T05:09:59;100536.44;;;21.31;36.14
62710;BME280;48770;51.624;5.886;2023-04-22T05:12:24;100544.78;;;21.31;36.09
62710;BME280;48770;51.624;5.886;2023-04-22T05:14:49;100548.72;;;21.30;36.00
62710;BME280;48770;51.624;5.886;2023-04-22T05:17:14;100541.56;;;21.29;35.93
62710;BME280;48770;51.624;5.886;2023-04-22T05:19:40;100554.28;;;21.30;36.07
62710;BME280;48770;51.624;5.886;2023-04-22T05:22:06;100549.09;;;21.28;36.24
62710;BME280;48770;51.624;5.886;2023-04-22T05:24:31;100551.06;;;21.28;35.90
62710;BME280;48770;51.624;5.886;2023-04-22T05:26:57;100551.06;;;21.28;36.09
62710;BME280;48770;51.624;5.886;2023-04-22T05:29:23;100556.63;;;21.28;36.37
62710;BME280;48770;51.624;5.886;2023-04-22T05:31:48;100553.41;;;21.26;35.91
62710;BME280;48770;51.624;5.886;2023-04-22T05:34:13;100547.84;;;21.26;35.93
62710;BME280;48770;51.624;5.886;2023-04-22T05:36:39;100547.03;;;21.25;35.86
62710;BME280;48770;51.624;5.886;2023-04-22T05:39:04;100549.81;;;21.25;36.00
62710;BME280;48770;51.624;5.886;2023-04-22T05:41:30;100550.63;;;21.26;36.15
62710;BME280;48770;51.624;5.886;2023-04-22T05:43:55;100540.69;;;21.24;36.17
62710;BME280;48770;51.624;5.886;2023-04-22T05:46:20;100535.13;;;21.24;35.93
62710;BME280;48770;51.624;5.886;2023-04-22T05:48:46;100537.09;;;21.24;36.14
62710;BME280;48770;51.624;5.886;2023-04-22T05:51:12;100541.47;;;21.25;36.18
62710;BME280;48770;51.624;5.886;2023-04-22T05:53:38;100534.31;;;21.24;35.80
62710;BME280;48770;51.624;5.886;2023-04-22T05:56:03;100539.88;;;21.24;35.94
62710;BME280;48770;51.624;5.886;2023-04-22T05:58:28;100551.00;;;21.24;35.83
62710;BME280;48770;51.624;5.886;2023-04-22T06:00:54;100551.78;;;21.24;36.05
62710;BME280;48770;51.624;5.886;2023-04-22T06:03:19;100552.13;;;21.23;35.81
62710;BME280;48770;51.624;5.886;2023-04-22T06:05:44;100551.31;;;21.22;36.23
62710;BME280;48770;51.624;5.886;2023-04-22T06:08:10;100560.47;;;21.23;35.82
62710;BME280;48770;51.624;5.886;2023-04-22T06:10:35;100552.13;;;21.23;36.03
62710;BME280;48770;51.624;5.886;2023-04-22T06:13:00;100550.19;;;21.23;36.17
62710;BME280;48770;51.624;5.886;2023-04-22T06:15:26;100550.19;;;21.23;36.04
62710;BME280;48770;51.624;5.886;2023-04-22T06:17:51;100552.97;;;21.23;35.94
62710;BME280;48770;51.624;5.886;2023-04-22T06:20:17;100545.75;;;21.22;35.89
62710;BME280;48770;51.624;5.886;2023-04-22T06:22:42;100541.38;;;21.21;36.12
62710;BME280;48770;51.624;5.886;2023-04-22T06:25:07;100532.66;;;21.23;35.93
62710;BME280;48770;51.624;5.886;2023-04-22T06:27:33;100544.63;;;21.23;35.75
62710;BME280;48770;51.624;5.886;2023-04-22T06:29:58;100541.84;;;21.23;35.92
62710;BME280;48770;51.624;5.886;2023-04-22T06:32:23;100536.28;;;21.23;35.92
62710;BME280;48770;51.624;5.886;2023-04-22T06:34:49;100529.06;;;21.22;35.76
62710;BME280;48770;51.624;5.886;2023-04-22T06:37:14;100521.53;;;21.23;36.18
62710;BME280;48770;51.624;5.886;2023-04-22T06:39:39;100520.75;;;21.22;36.14
62710;BME280;48770;51.624;5.886;2023-04-22T06:42:06;100510.41;;;21.23;36.11
62710;BME280;48770;51.624;5.886;2023-04-22T06:44:31;100514.03;;;21.23;36.23
62710;BME280;48770;51.624;5.886;2023-04-22T06:46:57;100518.75;;;21.23;35.93
62710;BME280;48770;51.624;5.886;2023-04-22T06:49:22;100515.97;;;21.23;35.76
62710;BME280;48770;51.624;5.886;2023-04-22T06:51:48;100523.19;;;21.24;35.66
62710;BME280;48770;51.624;5.886;2023-04-22T06:54:13;100529.56;;;21.24;35.78
62710;BME280;48770;51.624;5.886;2023-04-22T06:56:38;100518.44;;;21.24;35.87
62710;BME280;48770;51.624;5.886;2023-04-22T06:59:04;100525.97;;;21.24;35.93
62710;BME280;48770;51.624;5.886;2023-04-22T07:01:29;100515.97;;;21.23;35.85
62710;BME280;48770;51.624;5.886;2023-04-22T07:03:54;100512.06;;;21.24;35.99
62710;BME280;48770;51.624;5.886;2023-04-22T07:06:20;100502.06;;;21.23;36.00
62710;BME280;48770;51.624;5.886;2023-04-22T07:08:45;100512.88;;;21.24;36.12
62710;BME280;48770;51.624;5.886;2023-04-22T07:11:11;100513.69;;;21.25;35.67
62710;BME280;48770;51.624;5.886;2023-04-22T07:13:36;100506.50;;;21.24;35.84
62710;BME280;48770;51.624;5.886;2023-04-22T07:16:01;100503.72;;;21.24;35.90
62710;BME280;48770;51.624;5.886;2023-04-22T07:18:27;100497.78;;;21.26;36.11
62710;BME280;48770;51.624;5.886;2023-04-22T07:20:53;100497.00;;;21.25;35.83
62710;BME280;48770;51.624;5.886;2023-04-22T07:23:18;100503.34;;;21.26;35.89
62710;BME280;48770;51.624;5.886;2023-04-22T07:25:44;100504.53;;;21.24;35.80
62710;BME280;48770;51.624;5.886;2023-04-22T07:28:09;100507.31;;;21.24;35.97
62710;BME280;48770;51.624;5.886;2023-04-22T07:30:34;100496.19;;;21.24;36.14
62710;BME280;48770;51.624;5.886;2023-04-22T07:33:00;100500.56;;;21.26;35.89
62710;BME280;48770;51.624;5.886;2023-04-22T07:35:25;100492.22;;;21.26;36.32
62710;BME280;48770;51.624;5.886;2023-04-22T07:37:53;100492.22;;;21.26;36.15
62710;BME280;48770;51.624;5.886;2023-04-22T07:40:18;100489.44;;;21.26;36.13
62710;BME280;48770;51.624;5.886;2023-04-22T07:42:44;100493.03;;;21.26;36.18
62710;BME280;48770;51.624;5.886;2023-04-22T07:45:09;100496.63;;;21.27;36.02
62710;BME280;48770;51.624;5.886;2023-04-22T07:47:35;100503.00;;;21.27;35.99
62710;BME280;48770;51.624;5.886;2023-04-22T07:50:00;100507.75;;;21.27;36.10
62710;BME280;48770;51.624;5.886;2023-04-22T07:52:26;100513.31;;;21.27;36.05
62710;BME280;48770;51.624;5.886;2023-04-22T07:54:51;100513.31;;;21.27;36.08
62710;BME280;48770;51.624;5.886;2023-04-22T07:57:16;100503.78;;;21.28;36.08
62710;BME280;48770;51.624;5.886;2023-04-22T07:59:45;100501.81;;;21.28;36.14
62710;BME280;48770;51.624;5.886;2023-04-22T08:02:11;100510.97;;;21.29;36.38
62710;BME280;48770;51.624;5.886;2023-04-22T08:04:36;100520.91;;;21.30;36.47
62710;BME280;48770;51.624;5.886;2023-04-22T08:07:02;100509.00;;;21.29;36.60
62710;BME280;48770;51.624;5.886;2023-04-22T08:09:28;100511.41;;;21.31;36.24
62710;BME280;48770;51.624;5.886;2023-04-22T08:11:53;100506.66;;;21.31;36.47
62710;BME280;48770;51.624;5.886;2023-04-22T08:14:18;100494.72;;;21.31;36.62
62710;BME280;48770;51.624;5.886;2023-04-22T08:16:44;100487.63;;;21.33;36.52
62710;BME280;48770;51.624;5.886;2023-04-22T08:19:09;100486.00;;;21.32;36.68
62710;BME280;48770;51.624;5.886;2023-04-22T08:21:34;100484.03;;;21.33;36.49
62710;BME280;48770;51.624;5.886;2023-04-22T08:24:01;100480.09;;;21.34;36.59
62710;BME280;48770;51.624;5.886;2023-04-22T08:26:26;100487.28;;;21.35;36.31
62710;BME280;48770;51.624;5.886;2023-04-22T08:28:51;100482.88;;;21.34;36.72
62710;BME280;48770;51.624;5.886;2023-04-22T08:31:17;100479.75;;;21.35;36.65
62710;BME280;48770;51.624;5.886;2023-04-22T08:33:42;100471.03;;;21.37;36.91
62710;BME280;48770;51.624;5.886;2023-04-22T08:36:08;100471.03;;;21.37;36.75
62710;BME280;48770;51.624;5.886;2023-04-22T08:38:35;100469.44;;;21.36;37.03
62710;BME280;48770;51.624;5.886;2023-04-22T08:41:00;100468.25;;;21.37;36.78
62710;BME280;48770;51.624;5.886;2023-04-22T08:43:26;100464.31;;;21.38;36.96
62710;BME280;48770;51.624;5.886;2023-04-22T08:45:52;100470.69;;;21.38;37.15
62710;BME280;48770;51.624;5.886;2023-04-22T08:48:20;100469.50;;;21.39;37.01
62710;BME280;48770;51.624;5.886;2023-04-22T08:50:46;100465.56;;;21.40;37.07
62710;BME280;48770;51.624;5.886;2023-04-22T08:53:12;100469.13;;;21.41;37.08
62710;BME280;48770;51.624;5.886;2023-04-22T08:55:42;100462.41;;;21.42;37.10
62710;BME280;48770;51.624;5.886;2023-04-22T08:58:09;100456.84;;;21.42;37.12
62710;BME280;48770;51.624;5.886;2023-04-22T09:00:36;100459.63;;;21.42;37.18
62710;BME280;48770;51.624;5.886;2023-04-22T09:03:01;100438.97;;;21.43;36.85
62710;BME280;48770;51.624;5.886;2023-04-22T09:05:32;100448.94;;;21.44;37.23
62710;BME280;48770;51.624;5.886;2023-04-22T09:08:01;100438.63;;;21.44;37.20
62710;BME280;48770;51.624;5.886;2023-04-22T09:10:28;100439.41;;;21.45;37.32
62710;BME280;48770;51.624;5.886;2023-04-22T09:12:54;100437.44;;;21.45;37.11
62710;BME280;48770;51.624;5.886;2023-04-22T09:15:20;100435.47;;;21.46;37.01
62710;BME280;48770;51.624;5.886;2023-04-22T09:17:46;100427.91;;;21.46;37.44
62710;BME280;48770;51.624;5.886;2023-04-22T09:20:11;100431.06;;;21.45;37.18
62710;BME280;48770;51.624;5.886;2023-04-22T09:22:39;100427.56;;;21.48;37.51
62710;BME280;48770;51.624;5.886;2023-04-22T09:25:13;100423.59;;;21.49;37.25
62710;BME280;48770;51.624;5.886;2023-04-22T09:27:39;100420.38;;;21.47;37.38
62710;BME280;48770;51.624;5.886;2023-04-22T09:30:07;100425.94;;;21.47;37.45
62710;BME280;48770;51.624;5.886;2023-04-22T09:32:33;100424.78;;;21.48;37.54
62710;BME280;48770;51.624;5.886;2023-04-22T09:35:00;100432.31;;;21.47;37.69
62710;BME280;48770;51.624;5.886;2023-04-22T09:37:25;100427.56;;;21.48;37.46
62710;BME280;48770;51.624;5.886;2023-04-22T09:39:51;100428.34;;;21.48;37.49
62710;BME280;48770;51.624;5.886;2023-04-22T09:42:18;100435.16;;;21.51;37.61
62710;BME280;48770;51.624;5.886;2023-04-22T09:44:45;100431.56;;;21.50;37.64
62710;BME280;48770;51.624;5.886;2023-04-22T09:47:12;100437.94;;;21.51;37.46
62710;BME280;48770;51.624;5.886;2023-04-22T09:49:37;100427.63;;;21.51;37.68
62710;BME280;48770;51.624;5.886;2023-04-22T09:52:03;100426.00;;;21.50;37.25
62710;BME280;48770;51.624;5.886;2023-04-22T09:54:28;100429.22;;;21.52;37.55
62710;BME280;48770;51.624;5.886;2023-04-22T09:56:54;100422.50;;;21.53;37.54
62710;BME280;48770;51.624;5.886;2023-04-22T09:59:27;100416.13;;;21.53;37.73
62710;BME280;48770;51.624;5.886;2023-04-22T10:01:58;100424.09;;;21.54;37.49
62710;BME280;48770;51.624;5.886;2023-04-22T10:04:24;100414.94;;;21.54;37.55
62710;BME280;48770;51.624;5.886;2023-04-22T10:06:53;100411.00;;;21.55;37.42
62710;BME280;48770;51.624;5.886;2023-04-22T10:09:20;100418.16;;;21.56;37.46
62710;BME280;48770;51.624;5.886;2023-04-22T10:11:47;100407.84;;;21.57;37.61
62710;BME280;48770;51.624;5.886;2023-04-22T10:14:13;100419.78;;;21.57;37.43
62710;BME280;48770;51.624;5.886;2023-04-22T10:16:42;100417.00;;;21.57;37.59
62710;BME280;48770;51.624;5.886;2023-04-22T10:19:11;100420.22;;;21.59;37.47
62710;BME280;48770;51.624;5.886;2023-04-22T10:21:40;100414.66;;;21.59;37.46
62710;BME280;48770;51.624;5.886;2023-04-22T10:24:14;100417.44;;;21.59;37.62
62710;BME280;48770;51.624;5.886;2023-04-22T10:26:42;100414.66;;;21.59;37.44
62710;BME280;48770;51.624;5.886;2023-04-22T10:29:12;100412.31;;;21.61;37.63
62710;BME280;48770;51.624;5.886;2023-04-22T10:31:41;100415.44;;;21.60;37.52
62710;BME280;48770;51.624;5.886;2023-04-22T10:34:11;100414.75;;;21.63;37.65
62710;BME280;48770;51.624;5.886;2023-04-22T10:36:53;100418.31;;;21.63;37.81
62710;BME280;48770;51.624;5.886;2023-04-22T10:39:20;100416.34;;;21.64;37.87
62710;BME280;48770;51.624;5.886;2023-04-22T10:41:50;100409.63;;;21.65;37.47
62710;BME280;48770;51.624;5.886;2023-04-22T10:44:16;100421.19;;;21.67;37.27
62710;BME280;48770;51.624;5.886;2023-04-22T10:49:22;100418.81;;;21.69;37.60
62710;BME280;48770;51.624;5.886;2023-04-22T10:51:50;100421.59;;;21.69;37.61
62710;BME280;48770;51.624;5.886;2023-04-22T10:59:26;100429.59;;;21.70;37.90
62710;BME280;48770;51.624;5.886;2023-04-22T11:01:51;100418.47;;;21.70;37.97
62710;BME280;48770;51.624;5.886;2023-04-22T11:04:21;100408.13;;;21.71;38.15
62710;BME280;48770;51.624;5.886;2023-04-22T11:15:00;100401.03;;;21.73;37.77
62710;BME280;48770;51.624;5.886;2023-04-22T11:17:29;100401.47;;;21.75;37.77
62710;BME280;48770;51.624;5.886;2023-04-22T11:19:56;100396.31;;;21.77;38.00
62710;BME280;48770;51.624;5.886;2023-04-22T11:22:25;100411.03;;;21.78;37.82
62710;BME280;48770;51.624;5.886;2023-04-22T11:24:54;100407.09;;;21.79;37.95
62710;BME280;48770;51.624;5.886;2023-04-22T11:27:20;100400.72;;;21.78;38.07
62710;BME280;48770;51.624;5.886;2023-04-22T11:30:10;100404.25;;;21.75;37.97
62710;BME280;48770;51.624;5.886;2023-04-22T11:32:41;100403.06;;;21.76;38.04
62710;BME280;48770;51.624;5.886;2023-04-22T11:35:10;100404.25;;;21.75;38.34
62710;BME280;48770;51.624;5.886;2023-04-22T11:37:47;100403.44;;;21.75;38.11
62710;BME280;48770;51.624;5.886;2023-04-22T11:40:16;100412.59;;;21.75;38.06
62710;BME280;48770;51.624;5.886;2023-04-22T11:42:42;100406.59;;;21.73;38.56
62710;BME280;48770;51.624;5.886;2023-04-22T11:45:08;100407.38;;;21.74;38.49
62710;BME280;48770;51.624;5.886;2023-04-22T11:47:34;100407.38;;;21.74;38.10
62710;BME280;48770;51.624;5.886;2023-04-22T11:50:03;100409.00;;;21.75;38.20
62710;BME280;48770;51.624;5.886;2023-04-22T11:55:33;100392.25;;;21.71;38.31
62710;BME280;48770;51.624;5.886;2023-04-22T11:58:09;100405.78;;;21.73;38.20
62710;BME280;48770;51.624;5.886;2023-04-22T12:00:44;100397.81;;;21.71;38.35
62710;BME280;48770;51.624;5.886;2023-04-22T12:03:17;100392.25;;;21.71;38.35
62710;BME280;48770;51.624;5.886;2023-04-22T12:05:45;100399.41;;;21.72;38.62
62710;BME280;48770;51.624;5.886;2023-04-22T12:08:15;100386.69;;;21.71;38.38
62710;BME280;48770;51.624;5.886;2023-04-22T12:10:55;100381.47;;;21.70;38.59
62710;BME280;48770;51.624;5.886;2023-04-22T12:13:41;100394.59;;;21.69;38.35
62710;BME280;48770;51.624;5.886;2023-04-22T12:16:11;100391.44;;;21.71;38.73
62710;BME280;48770;51.624;5.886;2023-04-22T12:18:39;100389.81;;;21.70;38.61
62710;BME280;48770;51.624;5.886;2023-04-22T12:21:12;100391.44;;;21.71;38.86
62710;BME280;48770;51.624;5.886;2023-04-22T12:23:42;100393.78;;;21.69;38.78
62710;BME280;48770;51.624;5.886;2023-04-22T12:26:07;100390.63;;;21.70;38.57
62710;BME280;48770;51.624;5.886;2023-04-22T12:28:33;100390.63;;;21.70;38.93
62710;BME280;48770;51.624;5.886;2023-04-22T12:30:58;100395.41;;;21.70;38.57
62710;BME280;48770;51.624;5.886;2023-04-22T12:33:24;100399.41;;;21.72;38.49
62710;BME280;48770;51.624;5.886;2023-04-22T12:35:50;100392.25;;;21.71;38.56
62710;BME280;48770;51.624;5.886;2023-04-22T12:38:17;100398.59;;;21.72;38.75
62710;BME280;48770;51.624;5.886;2023-04-22T12:40:42;100401.38;;;21.72;38.60
62710;BME280;48770;51.624;5.886;2023-04-22T12:43:07;100403.38;;;21.71;38.63
62710;BME280;48770;51.624;5.886;2023-04-22T12:45:32;100399.78;;;21.71;38.75
62710;BME280;48770;51.624;5.886;2023-04-22T12:47:58;100399.78;;;21.71;38.89
62710;BME280;48770;51.624;5.886;2023-04-22T12:50:23;100396.63;;;21.72;38.83
62710;BME280;48770;51.624;5.886;2023-04-22T12:52:49;100398.59;;;21.72;38.87
62710;BME280;48770;51.624;5.886;2023-04-22T12:55:15;100401.03;;;21.73;38.63
62710;BME280;48770;51.624;5.886;2023-04-22T12:57:41;100406.59;;;21.73;38.83
62710;BME280;48770;51.624;5.886;2023-04-22T13:00:07;100407.03;;;21.75;38.73
62710;BME280;48770;51.624;5.886;2023-04-22T13:02:41;100406.22;;;21.75;39.10
62710;BME280;48770;51.624;5.886;2023-04-22T13:05:07;100405.41;;;21.74;38.85